RYR74 LICB-LICR
Flight info
| Callsign | RYR74 |
|---|---|
| Flight time | N/A |
| Altitude | 14000 |
| Route | VP019 DCT VP022 DCT CC601 DCT VP030 DCT VP031 DCT VP042 |
| Aircraft | B38M/M-SDE1FGHILORVWXY/HB1 |
Departure
| Time | 2026-04-19 17:04 |
|---|---|
| Airport | Comiso Airport (LICB) |
Arrival
| Time | N/A |
|---|---|
| Airport | Reggio Calabria Airport (LICR) |
| Time | Latitude | Longitude | Altitude | Speed | Heading |
|---|---|---|---|---|---|
| 2026-04-19 17:00 | 36.99677 | 14.60707 | 722 ft | 0 kts | 50° |
| 2026-04-19 17:01 | 36.99684 | 14.60716 | 721 ft | 6 kts | 50° |
| 2026-04-19 17:02 | 36.99777 | 14.60855 | 729 ft | 27 kts | 50° |
| 2026-04-19 17:02 | 36.99910 | 14.61051 | 736 ft | 32 kts | 50° |
| 2026-04-19 17:02 | 37.00056 | 14.61269 | 746 ft | 33 kts | 50° |
| 2026-04-19 17:02 | 37.00200 | 14.61483 | 754 ft | 31 kts | 50° |
| 2026-04-19 17:03 | 37.00294 | 14.61626 | 758 ft | 19 kts | 51° |
| 2026-04-19 17:03 | 37.00358 | 14.61750 | 767 ft | 14 kts | 85° |
| 2026-04-19 17:03 | 37.00312 | 14.61828 | 767 ft | 11 kts | 149° |
| 2026-04-19 17:03 | 37.00206 | 14.61822 | 764 ft | 19 kts | 225° |
| 2026-04-19 17:04 | 37.00110 | 14.61670 | 757 ft | 26 kts | 229° |
| 2026-04-19 17:04 | 36.99907 | 14.61360 | 744 ft | 86 kts | 230° |
| 2026-04-19 17:04 | 36.99351 | 14.60536 | 784 ft | 150 kts | 230° |
| 2026-04-19 17:04 | 36.98756 | 14.59369 | 1360 ft | 171 kts | 263° |
| 2026-04-19 17:05 | 36.99207 | 14.58076 | 2250 ft | 172 kts | 328° |
| 2026-04-19 17:05 | 37.00463 | 14.57611 | 2639 ft | 210 kts | 357° |
| 2026-04-19 17:05 | 37.02005 | 14.58108 | 3116 ft | 249 kts | 37° |
| 2026-04-19 17:05 | 37.03145 | 14.59689 | 4534 ft | 250 kts | 48° |
| 2026-04-19 17:06 | 37.04370 | 14.61333 | 5621 ft | 265 kts | 45° |
| 2026-04-19 17:06 | 37.05646 | 14.63009 | 6953 ft | 266 kts | 45° |
| 2026-04-19 17:06 | 37.06932 | 14.64716 | 8131 ft | 273 kts | 44° |
| 2026-04-19 17:06 | 37.08252 | 14.66475 | 9245 ft | 280 kts | 44° |
| 2026-04-19 17:07 | 37.09600 | 14.68280 | 10346 ft | 287 kts | 44° |
| 2026-04-19 17:07 | 37.11007 | 14.70162 | 11098 ft | 305 kts | 44° |
| 2026-04-19 17:07 | 37.12492 | 14.72145 | 11720 ft | 326 kts | 45° |
| 2026-04-19 17:07 | 37.14079 | 14.74265 | 12500 ft | 340 kts | 45° |
| 2026-04-19 17:08 | 37.15718 | 14.76465 | 13400 ft | 350 kts | 45° |
| 2026-04-19 17:08 | 37.17431 | 14.78762 | 13760 ft | 375 kts | 45° |
| 2026-04-19 17:08 | 37.19259 | 14.81213 | 13780 ft | 380 kts | 45° |
| 2026-04-19 17:08 | 37.21000 | 14.83575 | 14041 ft | 359 kts | 45° |
| 2026-04-19 17:09 | 37.22738 | 14.85924 | 14067 ft | 377 kts | 45° |
| 2026-04-19 17:09 | 37.24542 | 14.88359 | 14057 ft | 384 kts | 45° |
| 2026-04-19 17:09 | 37.26375 | 14.90839 | 14061 ft | 388 kts | 45° |
| 2026-04-19 17:09 | 37.28194 | 14.93306 | 14068 ft | 377 kts | 45° |
| 2026-04-19 17:10 | 37.29909 | 14.95639 | 14028 ft | 360 kts | 45° |
| 2026-04-19 17:10 | 37.31588 | 14.97920 | 13757 ft | 353 kts | 45° |
| 2026-04-19 17:10 | 37.33271 | 15.00207 | 13304 ft | 350 kts | 45° |
| 2026-04-19 17:10 | 37.34899 | 15.02419 | 12879 ft | 348 kts | 45° |
| 2026-04-19 17:11 | 37.36537 | 15.04646 | 12478 ft | 345 kts | 45° |
| 2026-04-19 17:11 | 37.38158 | 15.06851 | 12072 ft | 342 kts | 44° |
| 2026-04-19 17:11 | 37.40011 | 15.08677 | 11617 ft | 336 kts | 24° |
| 2026-04-19 17:11 | 37.42153 | 15.09799 | 11272 ft | 331 kts | 20° |
| 2026-04-19 17:12 | 37.44257 | 15.10858 | 11118 ft | 321 kts | 19° |
| 2026-04-19 17:12 | 37.46305 | 15.11873 | 10953 ft | 310 kts | 19° |
| 2026-04-19 17:12 | 37.48252 | 15.12830 | 10824 ft | 291 kts | 19° |
| 2026-04-19 17:12 | 37.50083 | 15.13726 | 10680 ft | 274 kts | 19° |
| 2026-04-19 17:13 | 37.51813 | 15.14570 | 10564 ft | 262 kts | 19° |
| 2026-04-19 17:13 | 37.53491 | 15.15389 | 10427 ft | 257 kts | 18° |
| 2026-04-19 17:13 | 37.55185 | 15.16217 | 10295 ft | 266 kts | 20° |
| 2026-04-19 17:13 | 37.56736 | 15.17476 | 10130 ft | 275 kts | 40° |
| 2026-04-19 17:14 | 37.58137 | 15.19142 | 9854 ft | 278 kts | 40° |
| 2026-04-19 17:14 | 37.59551 | 15.20816 | 9534 ft | 279 kts | 40° |
| 2026-04-19 17:14 | 37.60958 | 15.22493 | 9224 ft | 277 kts | 40° |
| 2026-04-19 17:14 | 37.62325 | 15.24211 | 8896 ft | 277 kts | 43° |
| 2026-04-19 17:15 | 37.63661 | 15.25955 | 8579 ft | 275 kts | 44° |
| 2026-04-19 17:15 | 37.64988 | 15.27682 | 8301 ft | 272 kts | 43° |
| 2026-04-19 17:15 | 37.66304 | 15.29390 | 8027 ft | 270 kts | 43° |
| 2026-04-19 17:15 | 37.67606 | 15.31082 | 7736 ft | 268 kts | 43° |
| 2026-04-19 17:16 | 37.68900 | 15.32764 | 7454 ft | 266 kts | 43° |
| 2026-04-19 17:16 | 37.70257 | 15.34302 | 7277 ft | 258 kts | 35° |
| 2026-04-19 17:16 | 37.71652 | 15.35653 | 7186 ft | 247 kts | 33° |